sensor_id;sensor_type;location;lat;lon;timestamp;temperature;humidity
38241;DHT22;24037;49.536;8.500;2022-11-20T00:01:14;2.60;99.90
38241;DHT22;24037;49.536;8.500;2022-11-20T00:03:41;2.60;99.90
38241;DHT22;24037;49.536;8.500;2022-11-20T00:06:10;2.60;99.90
38241;DHT22;24037;49.536;8.500;2022-11-20T00:08:37;2.60;99.90
38241;DHT22;24037;49.536;8.500;2022-11-20T00:11:08;2.60;99.90
38241;DHT22;24037;49.536;8.500;2022-11-20T00:13:35;2.60;99.90
38241;DHT22;24037;49.536;8.500;2022-11-20T00:16:03;2.50;99.90
38241;DHT22;24037;49.536;8.500;2022-11-20T00:18:30;2.50;99.90
38241;DHT22;24037;49.536;8.500;2022-11-20T00:21:09;2.50;99.90
38241;DHT22;24037;49.536;8.500;2022-11-20T00:23:36;2.50;99.90
38241;DHT22;24037;49.536;8.500;2022-11-20T00:26:07;2.50;99.90
38241;DHT22;24037;49.536;8.500;2022-11-20T00:28:33;2.50;99.90
38241;DHT22;24037;49.536;8.500;2022-11-20T00:31:04;2.50;99.90
38241;DHT22;24037;49.536;8.500;2022-11-20T00:33:30;2.50;99.90
38241;DHT22;24037;49.536;8.500;2022-11-20T00:36:08;2.60;99.90
38241;DHT22;24037;49.536;8.500;2022-11-20T00:38:35;2.60;99.90
38241;DHT22;24037;49.536;8.500;2022-11-20T00:41:04;2.50;99.90
38241;DHT22;24037;49.536;8.500;2022-11-20T00:43:30;2.50;99.90
38241;DHT22;24037;49.536;8.500;2022-11-20T00:46:09;2.50;99.90
38241;DHT22;24037;49.536;8.500;2022-11-20T00:48:36;2.60;99.90
38241;DHT22;24037;49.536;8.500;2022-11-20T00:51:02;2.60;99.90
38241;DHT22;24037;49.536;8.500;2022-11-20T00:53:28;2.60;99.90
38241;DHT22;24037;49.536;8.500;2022-11-20T00:55:56;2.60;99.90
38241;DHT22;24037;49.536;8.500;2022-11-20T00:58:23;2.60;99.90
38241;DHT22;24037;49.536;8.500;2022-11-20T01:00:50;2.80;99.90
38241;DHT22;24037;49.536;8.500;2022-11-20T01:03:17;2.80;99.90
38241;DHT22;24037;49.536;8.500;2022-11-20T01:05:44;2.70;99.90
38241;DHT22;24037;49.536;8.500;2022-11-20T01:08:10;2.70;99.90
38241;DHT22;24037;49.536;8.500;2022-11-20T01:10:36;2.70;99.90
38241;DHT22;24037;49.536;8.500;2022-11-20T01:13:02;2.60;99.90
38241;DHT22;24037;49.536;8.500;2022-11-20T01:15:47;2.60;99.90
38241;DHT22;24037;49.536;8.500;2022-11-20T01:18:13;2.60;99.90
38241;DHT22;24037;49.536;8.500;2022-11-20T01:20:40;2.50;99.90
38241;DHT22;24037;49.536;8.500;2022-11-20T01:23:06;2.50;99.90
38241;DHT22;24037;49.536;8.500;2022-11-20T01:25:34;2.60;99.90
38241;DHT22;24037;49.536;8.500;2022-11-20T01:28:00;2.60;99.90
38241;DHT22;24037;49.536;8.500;2022-11-20T01:30:26;2.50;99.90
38241;DHT22;24037;49.536;8.500;2022-11-20T01:32:55;2.60;99.90
38241;DHT22;24037;49.536;8.500;2022-11-20T01:35:21;2.60;99.90
38241;DHT22;24037;49.536;8.500;2022-11-20T01:37:47;2.60;99.90
38241;DHT22;24037;49.536;8.500;2022-11-20T01:40:13;2.60;99.90
38241;DHT22;24037;49.536;8.500;2022-11-20T01:42:46;2.60;99.90
38241;DHT22;24037;49.536;8.500;2022-11-20T01:45:52;2.60;99.90
38241;DHT22;24037;49.536;8.500;2022-11-20T01:48:23;2.50;99.90
38241;DHT22;24037;49.536;8.500;2022-11-20T01:50:52;2.50;99.90
38241;DHT22;24037;49.536;8.500;2022-11-20T01:53:23;2.50;99.90
38241;DHT22;24037;49.536;8.500;2022-11-20T01:55:53;2.60;99.90
38241;DHT22;24037;49.536;8.500;2022-11-20T01:58:23;2.60;99.90
38241;DHT22;24037;49.536;8.500;2022-11-20T02:00:52;2.60;99.90
38241;DHT22;24037;49.536;8.500;2022-11-20T02:03:19;2.60;99.90
38241;DHT22;24037;49.536;8.500;2022-11-20T02:05:57;2.60;99.90
38241;DHT22;24037;49.536;8.500;2022-11-20T02:08:24;2.60;99.90
38241;DHT22;24037;49.536;8.500;2022-11-20T02:10:50;2.60;99.90
38241;DHT22;24037;49.536;8.500;2022-11-20T02:13:17;2.60;99.90
38241;DHT22;24037;49.536;8.500;2022-11-20T02:16:02;2.70;99.90
38241;DHT22;24037;49.536;8.500;2022-11-20T02:18:30;2.60;99.90
38241;DHT22;24037;49.536;8.500;2022-11-20T02:21:07;2.60;99.90
38241;DHT22;24037;49.536;8.500;2022-11-20T02:23:41;2.70;99.90
38241;DHT22;24037;49.536;8.500;2022-11-20T02:26:11;2.70;99.90
38241;DHT22;24037;49.536;8.500;2022-11-20T02:28:39;2.70;99.90
38241;DHT22;24037;49.536;8.500;2022-11-20T02:31:05;2.60;99.90
38241;DHT22;24037;49.536;8.500;2022-11-20T02:33:31;2.60;99.90
38241;DHT22;24037;49.536;8.500;2022-11-20T02:35:57;2.60;99.90
38241;DHT22;24037;49.536;8.500;2022-11-20T02:38:24;2.70;99.90
38241;DHT22;24037;49.536;8.500;2022-11-20T02:40:50;2.70;99.90
38241;DHT22;24037;49.536;8.500;2022-11-20T02:43:16;2.70;99.90
38241;DHT22;24037;49.536;8.500;2022-11-20T02:45:42;2.70;99.90
38241;DHT22;24037;49.536;8.500;2022-11-20T02:48:08;2.70;99.90
38241;DHT22;24037;49.536;8.500;2022-11-20T02:50:37;2.70;99.90
38241;DHT22;24037;49.536;8.500;2022-11-20T02:53:04;2.70;99.90
38241;DHT22;24037;49.536;8.500;2022-11-20T02:55:30;2.70;99.90
38241;DHT22;24037;49.536;8.500;2022-11-20T02:57:56;2.80;99.90
38241;DHT22;24037;49.536;8.500;2022-11-20T03:00:23;2.80;99.90
38241;DHT22;24037;49.536;8.500;2022-11-20T03:02:49;2.80;99.90
38241;DHT22;24037;49.536;8.500;2022-11-20T03:05:15;2.80;99.90
38241;DHT22;24037;49.536;8.500;2022-11-20T03:07:41;2.90;99.90
38241;DHT22;24037;49.536;8.500;2022-11-20T03:10:09;2.90;99.90
38241;DHT22;24037;49.536;8.500;2022-11-20T03:12:35;2.90;99.90
38241;DHT22;24037;49.536;8.500;2022-11-20T03:15:01;2.90;99.90
38241;DHT22;24037;49.536;8.500;2022-11-20T03:17:27;2.90;99.90
38241;DHT22;24037;49.536;8.500;2022-11-20T03:19:55;2.90;99.90
38241;DHT22;24037;49.536;8.500;2022-11-20T03:22:21;2.90;99.90
38241;DHT22;24037;49.536;8.500;2022-11-20T03:24:47;3.00;99.90
38241;DHT22;24037;49.536;8.500;2022-11-20T03:27:13;3.00;99.90
38241;DHT22;24037;49.536;8.500;2022-11-20T03:29:39;3.00;99.90
38241;DHT22;24037;49.536;8.500;2022-11-20T03:32:06;3.00;99.90
38241;DHT22;24037;49.536;8.500;2022-11-20T03:34:32;3.10;99.90
38241;DHT22;24037;49.536;8.500;2022-11-20T03:36:58;3.10;99.90
38241;DHT22;24037;49.536;8.500;2022-11-20T03:39:24;3.20;99.90
38241;DHT22;24037;49.536;8.500;2022-11-20T03:41:50;3.20;99.90
38241;DHT22;24037;49.536;8.500;2022-11-20T03:44:16;3.10;99.90
38241;DHT22;24037;49.536;8.500;2022-11-20T03:46:42;3.10;99.90
38241;DHT22;24037;49.536;8.500;2022-11-20T03:49:08;3.10;99.90
38241;DHT22;24037;49.536;8.500;2022-11-20T03:51:35;3.10;99.90
38241;DHT22;24037;49.536;8.500;2022-11-20T03:54:07;3.00;99.90
38241;DHT22;24037;49.536;8.500;2022-11-20T03:56:36;3.00;99.90
38241;DHT22;24037;49.536;8.500;2022-11-20T03:59:03;3.00;99.90
38241;DHT22;24037;49.536;8.500;2022-11-20T04:01:31;3.00;99.90
38241;DHT22;24037;49.536;8.500;2022-11-20T04:03:58;3.00;99.90
38241;DHT22;24037;49.536;8.500;2022-11-20T04:06:29;3.00;99.90
38241;DHT22;24037;49.536;8.500;2022-11-20T04:08:57;3.00;99.90
38241;DHT22;24037;49.536;8.500;2022-11-20T04:11:27;2.90;99.90
38241;DHT22;24037;49.536;8.500;2022-11-20T04:14:00;2.90;99.90
38241;DHT22;24037;49.536;8.500;2022-11-20T04:16:29;2.90;99.90
38241;DHT22;24037;49.536;8.500;2022-11-20T04:18:58;2.80;99.90
38241;DHT22;24037;49.536;8.500;2022-11-20T04:21:25;2.80;99.90
38241;DHT22;24037;49.536;8.500;2022-11-20T04:23:52;2.90;99.90
38241;DHT22;24037;49.536;8.500;2022-11-20T04:26:23;2.80;99.90
38241;DHT22;24037;49.536;8.500;2022-11-20T04:28:49;2.80;99.90
38241;DHT22;24037;49.536;8.500;2022-11-20T04:31:21;2.80;99.90
38241;DHT22;24037;49.536;8.500;2022-11-20T04:33:48;2.80;99.90
38241;DHT22;24037;49.536;8.500;2022-11-20T04:36:23;2.80;99.90
38241;DHT22;24037;49.536;8.500;2022-11-20T04:38:58;2.70;99.90
38241;DHT22;24037;49.536;8.500;2022-11-20T04:41:27;2.70;99.90
38241;DHT22;24037;49.536;8.500;2022-11-20T04:43:56;2.80;99.90
38241;DHT22;24037;49.536;8.500;2022-11-20T04:46:26;2.80;99.90
38241;DHT22;24037;49.536;8.500;2022-11-20T04:48:52;2.80;99.90
38241;DHT22;24037;49.536;8.500;2022-11-20T04:51:19;2.80;99.90
38241;DHT22;24037;49.536;8.500;2022-11-20T04:53:45;2.80;99.90
38241;DHT22;24037;49.536;8.500;2022-11-20T04:56:12;2.80;99.90
38241;DHT22;24037;49.536;8.500;2022-11-20T04:58:39;2.80;99.90
38241;DHT22;24037;49.536;8.500;2022-11-20T05:01:14;2.80;99.90
38241;DHT22;24037;49.536;8.500;2022-11-20T05:03:41;2.80;99.90
38241;DHT22;24037;49.536;8.500;2022-11-20T05:06:09;2.80;99.90
38241;DHT22;24037;49.536;8.500;2022-11-20T05:08:35;2.90;99.90
38241;DHT22;24037;49.536;8.500;2022-11-20T05:11:03;2.90;99.90
38241;DHT22;24037;49.536;8.500;2022-11-20T05:13:30;2.90;99.90
38241;DHT22;24037;49.536;8.500;2022-11-20T05:16:04;3.00;99.90
38241;DHT22;24037;49.536;8.500;2022-11-20T05:18:30;2.90;99.90
38241;DHT22;24037;49.536;8.500;2022-11-20T05:20:58;2.90;99.90
38241;DHT22;24037;49.536;8.500;2022-11-20T05:23:25;2.90;99.90
38241;DHT22;24037;49.536;8.500;2022-11-20T05:25:55;2.90;99.90
38241;DHT22;24037;49.536;8.500;2022-11-20T05:28:22;2.90;99.90
38241;DHT22;24037;49.536;8.500;2022-11-20T05:30:49;2.90;99.90
38241;DHT22;24037;49.536;8.500;2022-11-20T05:33:16;2.90;99.90
38241;DHT22;24037;49.536;8.500;2022-11-20T05:35:43;2.90;99.90
38241;DHT22;24037;49.536;8.500;2022-11-20T05:38:09;3.00;99.90
38241;DHT22;24037;49.536;8.500;2022-11-20T05:40:36;3.00;99.90
38241;DHT22;24037;49.536;8.500;2022-11-20T05:43:02;3.00;99.90
38241;DHT22;24037;49.536;8.500;2022-11-20T05:45:28;2.90;99.90
38241;DHT22;24037;49.536;8.500;2022-11-20T05:47:58;3.00;99.90
38241;DHT22;24037;49.536;8.500;2022-11-20T05:50:27;3.00;99.90
38241;DHT22;24037;49.536;8.500;2022-11-20T05:52:53;3.00;99.90
38241;DHT22;24037;49.536;8.500;2022-11-20T05:55:19;3.00;99.90
38241;DHT22;24037;49.536;8.500;2022-11-20T05:57:45;3.00;99.90
38241;DHT22;24037;49.536;8.500;2022-11-20T06:00:12;3.00;99.90
38241;DHT22;24037;49.536;8.500;2022-11-20T06:02:39;3.00;99.90
38241;DHT22;24037;49.536;8.500;2022-11-20T06:05:05;3.00;99.90
38241;DHT22;24037;49.536;8.500;2022-11-20T06:07:31;3.00;99.90
38241;DHT22;24037;49.536;8.500;2022-11-20T06:09:57;2.90;99.90
38241;DHT22;24037;49.536;8.500;2022-11-20T06:12:24;2.90;99.90
38241;DHT22;24037;49.536;8.500;2022-11-20T06:14:50;2.90;99.90
38241;DHT22;24037;49.536;8.500;2022-11-20T06:17:16;2.90;99.90
38241;DHT22;24037;49.536;8.500;2022-11-20T06:19:42;3.00;99.90
38241;DHT22;24037;49.536;8.500;2022-11-20T06:22:08;3.00;99.90
38241;DHT22;24037;49.536;8.500;2022-11-20T06:24:34;3.00;99.90
38241;DHT22;24037;49.536;8.500;2022-11-20T06:27:00;3.00;99.90
38241;DHT22;24037;49.536;8.500;2022-11-20T06:29:26;3.00;99.90
38241;DHT22;24037;49.536;8.500;2022-11-20T06:31:53;3.00;99.90
38241;DHT22;24037;49.536;8.500;2022-11-20T06:34:19;2.90;99.90
38241;DHT22;24037;49.536;8.500;2022-11-20T06:36:45;3.00;99.90
38241;DHT22;24037;49.536;8.500;2022-11-20T06:39:11;2.90;99.90
38241;DHT22;24037;49.536;8.500;2022-11-20T06:41:37;2.90;99.90
38241;DHT22;24037;49.536;8.500;2022-11-20T06:44:04;2.90;99.90
38241;DHT22;24037;49.536;8.500;2022-11-20T06:46:31;3.00;99.90
38241;DHT22;24037;49.536;8.500;2022-11-20T06:48:58;3.00;99.90
38241;DHT22;24037;49.536;8.500;2022-11-20T06:51:24;3.10;99.90
38241;DHT22;24037;49.536;8.500;2022-11-20T06:53:51;3.00;99.90
38241;DHT22;24037;49.536;8.500;2022-11-20T06:56:17;3.00;99.90
38241;DHT22;24037;49.536;8.500;2022-11-20T06:58:43;3.00;99.90
38241;DHT22;24037;49.536;8.500;2022-11-20T07:01:12;3.00;99.90
38241;DHT22;24037;49.536;8.500;2022-11-20T07:03:38;3.00;99.90
38241;DHT22;24037;49.536;8.500;2022-11-20T07:06:05;3.00;99.90
38241;DHT22;24037;49.536;8.500;2022-11-20T07:08:32;3.00;99.90
38241;DHT22;24037;49.536;8.500;2022-11-20T07:11:04;3.00;99.90
38241;DHT22;24037;49.536;8.500;2022-11-20T07:13:31;3.00;99.90
38241;DHT22;24037;49.536;8.500;2022-11-20T07:16:06;3.10;99.90
38241;DHT22;24037;49.536;8.500;2022-11-20T07:18:33;3.10;99.90
38241;DHT22;24037;49.536;8.500;2022-11-20T07:21:03;3.10;99.90
38241;DHT22;24037;49.536;8.500;2022-11-20T07:23:31;3.10;99.90
38241;DHT22;24037;49.536;8.500;2022-11-20T07:25:57;3.20;99.90
38241;DHT22;24037;49.536;8.500;2022-11-20T07:28:23;3.20;99.90
38241;DHT22;24037;49.536;8.500;2022-11-20T07:30:51;3.20;99.90
38241;DHT22;24037;49.536;8.500;2022-11-20T07:33:17;3.20;99.90
38241;DHT22;24037;49.536;8.500;2022-11-20T07:35:43;3.20;99.90
38241;DHT22;24037;49.536;8.500;2022-11-20T07:38:09;3.20;99.90
38241;DHT22;24037;49.536;8.500;2022-11-20T07:40:36;3.30;99.90
38241;DHT22;24037;49.536;8.500;2022-11-20T07:43:02;3.30;99.90
38241;DHT22;24037;49.536;8.500;2022-11-20T07:45:28;3.40;99.90
38241;DHT22;24037;49.536;8.500;2022-11-20T07:47:54;3.40;99.90
38241;DHT22;24037;49.536;8.500;2022-11-20T07:50:20;3.50;99.90
38241;DHT22;24037;49.536;8.500;2022-11-20T07:52:47;3.50;99.90
38241;DHT22;24037;49.536;8.500;2022-11-20T07:55:13;3.60;99.90
38241;DHT22;24037;49.536;8.500;2022-11-20T07:57:40;3.60;99.90
38241;DHT22;24037;49.536;8.500;2022-11-20T08:00:08;3.70;99.90
38241;DHT22;24037;49.536;8.500;2022-11-20T08:02:41;3.70;99.90
38241;DHT22;24037;49.536;8.500;2022-11-20T08:05:08;3.70;99.90
38241;DHT22;24037;49.536;8.500;2022-11-20T08:07:38;3.70;99.90
38241;DHT22;24037;49.536;8.500;2022-11-20T08:10:06;3.70;99.90
38241;DHT22;24037;49.536;8.500;2022-11-20T08:12:32;3.60;99.90
38241;DHT22;24037;49.536;8.500;2022-11-20T08:15:17;3.50;99.90
38241;DHT22;24037;49.536;8.500;2022-11-20T08:17:43;3.50;99.90
38241;DHT22;24037;49.536;8.500;2022-11-20T08:20:09;3.50;99.90
38241;DHT22;24037;49.536;8.500;2022-11-20T08:22:36;3.60;99.90
38241;DHT22;24037;49.536;8.500;2022-11-20T08:25:02;3.60;99.90
38241;DHT22;24037;49.536;8.500;2022-11-20T08:27:28;3.60;99.90
38241;DHT22;24037;49.536;8.500;2022-11-20T08:29:54;3.70;99.90
38241;DHT22;24037;49.536;8.500;2022-11-20T08:32:21;3.60;99.90
38241;DHT22;24037;49.536;8.500;2022-11-20T08:34:47;3.60;99.90
38241;DHT22;24037;49.536;8.500;2022-11-20T08:37:13;3.60;99.90
38241;DHT22;24037;49.536;8.500;2022-11-20T08:39:39;3.60;99.90
38241;DHT22;24037;49.536;8.500;2022-11-20T08:42:08;3.60;99.90
38241;DHT22;24037;49.536;8.500;2022-11-20T08:44:34;3.60;99.90
38241;DHT22;24037;49.536;8.500;2022-11-20T08:47:01;3.70;99.90
38241;DHT22;24037;49.536;8.500;2022-11-20T08:49:27;3.70;99.90
38241;DHT22;24037;49.536;8.500;2022-11-20T08:51:53;3.60;99.90
38241;DHT22;24037;49.536;8.500;2022-11-20T08:54:21;3.70;99.90
38241;DHT22;24037;49.536;8.500;2022-11-20T08:56:48;3.70;99.90
38241;DHT22;24037;49.536;8.500;2022-11-20T08:59:14;3.70;99.90
38241;DHT22;24037;49.536;8.500;2022-11-20T09:01:41;3.70;99.90
38241;DHT22;24037;49.536;8.500;2022-11-20T09:04:07;3.70;99.90
38241;DHT22;24037;49.536;8.500;2022-11-20T09:06:33;3.80;99.90
38241;DHT22;24037;49.536;8.500;2022-11-20T09:08:59;3.90;99.90
38241;DHT22;24037;49.536;8.500;2022-11-20T09:11:25;3.90;99.90
38241;DHT22;24037;49.536;8.500;2022-11-20T09:13:51;3.80;99.90
38241;DHT22;24037;49.536;8.500;2022-11-20T09:16:18;3.80;99.90
38241;DHT22;24037;49.536;8.500;2022-11-20T09:18:44;3.80;99.90
38241;DHT22;24037;49.536;8.500;2022-11-20T09:21:11;3.80;99.90
38241;DHT22;24037;49.536;8.500;2022-11-20T09:23:39;3.90;99.90
38241;DHT22;24037;49.536;8.500;2022-11-20T09:26:08;3.80;99.90
38241;DHT22;24037;49.536;8.500;2022-11-20T09:28:34;3.80;99.90
38241;DHT22;24037;49.536;8.500;2022-11-20T09:31:03;3.80;99.90
38241;DHT22;24037;49.536;8.500;2022-11-20T09:33:30;3.80;99.90
38241;DHT22;24037;49.536;8.500;2022-11-20T09:35:56;3.90;99.90
38241;DHT22;24037;49.536;8.500;2022-11-20T09:38:22;3.90;99.90
38241;DHT22;24037;49.536;8.500;2022-11-20T09:41:41;3.80;99.90
38241;DHT22;24037;49.536;8.500;2022-11-20T09:49:39;3.80;99.90
38241;DHT22;24037;49.536;8.500;2022-11-20T09:55:11;3.90;99.90
38241;DHT22;24037;49.536;8.500;2022-11-20T09:57:43;3.90;99.90
38241;DHT22;24037;49.536;8.500;2022-11-20T10:00:12;4.00;99.90
38241;DHT22;24037;49.536;8.500;2022-11-20T10:02:48;4.00;99.90
38241;DHT22;24037;49.536;8.500;2022-11-20T10:05:45;4.00;99.90
38241;DHT22;24037;49.536;8.500;2022-11-20T10:08:21;4.00;99.90
38241;DHT22;24037;49.536;8.500;2022-11-20T10:10:54;4.10;99.90
38241;DHT22;24037;49.536;8.500;2022-11-20T10:19:47;4.10;99.90
38241;DHT22;24037;49.536;8.500;2022-11-20T10:22:27;4.10;99.90
38241;DHT22;24037;49.536;8.500;2022-11-20T10:25:14;4.20;99.90
38241;DHT22;24037;49.536;8.500;2022-11-20T10:30:29;4.20;99.90
38241;DHT22;24037;49.536;8.500;2022-11-20T10:33:21;4.20;99.90
38241;DHT22;24037;49.536;8.500;2022-11-20T10:36:05;4.30;99.90
38241;DHT22;24037;49.536;8.500;2022-11-20T10:38:35;4.40;99.90
38241;DHT22;24037;49.536;8.500;2022-11-20T10:41:04;4.50;99.90
38241;DHT22;24037;49.536;8.500;2022-11-20T10:43:54;4.40;99.90
38241;DHT22;24037;49.536;8.500;2022-11-20T10:46:22;4.50;99.90
38241;DHT22;24037;49.536;8.500;2022-11-20T10:48:49;4.60;99.90
38241;DHT22;24037;49.536;8.500;2022-11-20T10:51:37;4.60;99.90
38241;DHT22;24037;49.536;8.500;2022-11-20T10:55:01;4.50;99.90
38241;DHT22;24037;49.536;8.500;2022-11-20T11:00:19;4.70;99.90
38241;DHT22;24037;49.536;8.500;2022-11-20T11:02:55;4.80;99.90
38241;DHT22;24037;49.536;8.500;2022-11-20T11:05:46;4.90;99.90
38241;DHT22;24037;49.536;8.500;2022-11-20T11:08:15;4.90;99.90
38241;DHT22;24037;49.536;8.500;2022-11-20T11:10:53;4.80;99.90
38241;DHT22;24037;49.536;8.500;2022-11-20T11:13:26;4.90;99.90
38241;DHT22;24037;49.536;8.500;2022-11-20T11:15:53;4.90;99.90
38241;DHT22;24037;49.536;8.500;2022-11-20T11:18:30;4.90;99.90
38241;DHT22;24037;49.536;8.500;2022-11-20T11:21:00;4.90;99.90
38241;DHT22;24037;49.536;8.500;2022-11-20T11:23:33;5.00;99.90
38241;DHT22;24037;49.536;8.500;2022-11-20T11:26:03;5.10;99.90
38241;DHT22;24037;49.536;8.500;2022-11-20T11:28:29;5.20;99.90
38241;DHT22;24037;49.536;8.500;2022-11-20T11:30:56;5.10;99.90
38241;DHT22;24037;49.536;8.500;2022-11-20T11:33:24;5.10;99.90
38241;DHT22;24037;49.536;8.500;2022-11-20T11:35:53;5.20;99.90
38241;DHT22;24037;49.536;8.500;2022-11-20T11:38:35;5.10;99.90
38241;DHT22;24037;49.536;8.500;2022-11-20T11:41:04;5.20;99.90
38241;DHT22;24037;49.536;8.500;2022-11-20T11:43:34;5.30;99.90
38241;DHT22;24037;49.536;8.500;2022-11-20T11:49:19;5.60;99.90
38241;DHT22;24037;49.536;8.500;2022-11-20T11:52:02;5.60;99.90
38241;DHT22;24037;49.536;8.500;2022-11-20T11:57:00;5.80;99.90
38241;DHT22;24037;49.536;8.500;2022-11-20T12:05:46;5.90;99.90
38241;DHT22;24037;49.536;8.500;2022-11-20T12:11:13;5.90;99.90
38241;DHT22;24037;49.536;8.500;2022-11-20T12:13:55;6.00;99.90
38241;DHT22;24037;49.536;8.500;2022-11-20T12:16:22;5.90;99.90
38241;DHT22;24037;49.536;8.500;2022-11-20T12:18:52;5.90;99.90
38241;DHT22;24037;49.536;8.500;2022-11-20T12:21:31;5.90;99.90
38241;DHT22;24037;49.536;8.500;2022-11-20T12:27:16;5.90;99.90
38241;DHT22;24037;49.536;8.500;2022-11-20T12:30:07;5.90;99.90
38241;DHT22;24037;49.536;8.500;2022-11-20T12:44:46;6.10;99.90
38241;DHT22;24037;49.536;8.500;2022-11-20T12:47:55;6.00;99.90
38241;DHT22;24037;49.536;8.500;2022-11-20T12:56:27;5.80;99.90
38241;DHT22;24037;49.536;8.500;2022-11-20T13:02:20;5.90;99.90
38241;DHT22;24037;49.536;8.500;2022-11-20T13:07:45;6.10;99.90
38241;DHT22;24037;49.536;8.500;2022-11-20T13:10:38;6.10;99.90
38241;DHT22;24037;49.536;8.500;2022-11-20T13:13:14;6.20;99.90
38241;DHT22;24037;49.536;8.500;2022-11-20T13:16:33;6.20;99.90
38241;DHT22;24037;49.536;8.500;2022-11-20T13:18:40;6.30;99.90
38241;DHT22;24037;49.536;8.500;2022-11-20T13:21:18;6.40;99.90
38241;DHT22;24037;49.536;8.500;2022-11-20T13:23:44;6.40;99.90
38241;DHT22;24037;49.536;8.500;2022-11-20T13:26:22;6.50;99.90
38241;DHT22;24037;49.536;8.500;2022-11-20T13:29:02;6.50;99.90
38241;DHT22;24037;49.536;8.500;2022-11-20T13:31:36;6.60;99.90
38241;DHT22;24037;49.536;8.500;2022-11-20T13:34:06;6.70;99.90
38241;DHT22;24037;49.536;8.500;2022-11-20T13:36:33;6.80;99.90
38241;DHT22;24037;49.536;8.500;2022-11-20T13:39:00;6.80;99.90
38241;DHT22;24037;49.536;8.500;2022-11-20T13:41:32;7.00;99.90
38241;DHT22;24037;49.536;8.500;2022-11-20T13:46:50;7.10;99.90
38241;DHT22;24037;49.536;8.500;2022-11-20T13:49:45;7.20;99.90
38241;DHT22;24037;49.536;8.500;2022-11-20T14:00:26;7.40;99.90
38241;DHT22;24037;49.536;8.500;2022-11-20T14:05:35;7.60;99.90
38241;DHT22;24037;49.536;8.500;2022-11-20T14:08:04;7.60;99.90
38241;DHT22;24037;49.536;8.500;2022-11-20T14:10:31;7.60;99.90
38241;DHT22;24037;49.536;8.500;2022-11-20T14:12:58;7.70;99.90
38241;DHT22;24037;49.536;8.500;2022-11-20T14:15:35;7.80;99.90
38241;DHT22;24037;49.536;8.500;2022-11-20T14:18:18;7.90;99.90
38241;DHT22;24037;49.536;8.500;2022-11-20T14:20:45;7.80;99.90
38241;DHT22;24037;49.536;8.500;2022-11-20T14:23:11;7.80;99.90
38241;DHT22;24037;49.536;8.500;2022-11-20T14:25:42;7.70;99.90
38241;DHT22;24037;49.536;8.500;2022-11-20T14:28:18;7.60;99.90
38241;DHT22;24037;49.536;8.500;2022-11-20T14:30:48;7.50;99.90
38241;DHT22;24037;49.536;8.500;2022-11-20T14:33:14;7.40;99.90
38241;DHT22;24037;49.536;8.500;2022-11-20T14:35:46;7.40;99.90
38241;DHT22;24037;49.536;8.500;2022-11-20T14:38:16;7.30;99.90
38241;DHT22;24037;49.536;8.500;2022-11-20T14:40:43;7.20;99.90
38241;DHT22;24037;49.536;8.500;2022-11-20T14:43:19;7.10;99.90
38241;DHT22;24037;49.536;8.500;2022-11-20T14:45:52;7.00;99.90
38241;DHT22;24037;49.536;8.500;2022-11-20T14:48:26;7.00;99.90
38241;DHT22;24037;49.536;8.500;2022-11-20T14:50:54;6.90;99.90
38241;DHT22;24037;49.536;8.500;2022-11-20T14:53:24;6.80;99.90
38241;DHT22;24037;49.536;8.500;2022-11-20T14:56:00;6.80;99.90
38241;DHT22;24037;49.536;8.500;2022-11-20T14:58:29;6.80;99.90
38241;DHT22;24037;49.536;8.500;2022-11-20T15:01:05;6.70;99.90
38241;DHT22;24037;49.536;8.500;2022-11-20T15:03:40;6.70;99.90
38241;DHT22;24037;49.536;8.500;2022-11-20T15:06:10;6.70;99.90
38241;DHT22;24037;49.536;8.500;2022-11-20T15:08:37;6.70;99.90
38241;DHT22;24037;49.536;8.500;2022-11-20T15:11:14;6.80;99.90
38241;DHT22;24037;49.536;8.500;2022-11-20T15:13:42;6.80;99.90
38241;DHT22;24037;49.536;8.500;2022-11-20T15:16:20;6.80;99.90
38241;DHT22;24037;49.536;8.500;2022-11-20T15:18:47;6.70;99.90
38241;DHT22;24037;49.536;8.500;2022-11-20T15:21:15;6.60;99.90
38241;DHT22;24037;49.536;8.500;2022-11-20T15:23:42;6.60;99.90
38241;DHT22;24037;49.536;8.500;2022-11-20T15:26:10;6.60;99.90
38241;DHT22;24037;49.536;8.500;2022-11-20T15:28:39;6.60;99.90
38241;DHT22;24037;49.536;8.500;2022-11-20T15:31:09;6.50;99.90
38241;DHT22;24037;49.536;8.500;2022-11-20T15:33:37;6.50;99.90
38241;DHT22;24037;49.536;8.500;2022-11-20T15:36:03;6.40;99.90
38241;DHT22;24037;49.536;8.500;2022-11-20T15:38:30;6.30;99.90
38241;DHT22;24037;49.536;8.500;2022-11-20T15:40:56;6.30;99.90
38241;DHT22;24037;49.536;8.500;2022-11-20T15:43:22;6.30;99.90
38241;DHT22;24037;49.536;8.500;2022-11-20T15:45:51;6.20;99.90
38241;DHT22;24037;49.536;8.500;2022-11-20T15:48:30;6.10;99.90
38241;DHT22;24037;49.536;8.500;2022-11-20T15:53:29;6.10;99.90
38241;DHT22;24037;49.536;8.500;2022-11-20T15:55:55;6.10;99.90
38241;DHT22;24037;49.536;8.500;2022-11-20T15:58:22;6.10;99.90
38241;DHT22;24037;49.536;8.500;2022-11-20T16:00:50;6.10;99.90
38241;DHT22;24037;49.536;8.500;2022-11-20T16:03:17;6.10;99.90
38241;DHT22;24037;49.536;8.500;2022-11-20T16:05:44;6.00;99.90
38241;DHT22;24037;49.536;8.500;2022-11-20T16:08:10;6.00;99.90
38241;DHT22;24037;49.536;8.500;2022-11-20T16:10:37;6.00;99.90
38241;DHT22;24037;49.536;8.500;2022-11-20T16:13:03;6.00;99.90
38241;DHT22;24037;49.536;8.500;2022-11-20T16:15:55;6.00;99.90
38241;DHT22;24037;49.536;8.500;2022-11-20T16:18:22;6.00;99.90
38241;DHT22;24037;49.536;8.500;2022-11-20T16:20:51;6.00;99.90
38241;DHT22;24037;49.536;8.500;2022-11-20T16:23:19;6.00;99.90
38241;DHT22;24037;49.536;8.500;2022-11-20T16:25:46;6.00;99.90
38241;DHT22;24037;49.536;8.500;2022-11-20T16:28:13;6.00;99.90
38241;DHT22;24037;49.536;8.500;2022-11-20T16:30:39;6.00;99.90
38241;DHT22;24037;49.536;8.500;2022-11-20T16:33:15;6.00;99.90
38241;DHT22;24037;49.536;8.500;2022-11-20T16:35:43;6.00;99.90
38241;DHT22;24037;49.536;8.500;2022-11-20T16:38:09;6.00;99.90
38241;DHT22;24037;49.536;8.500;2022-11-20T16:40:36;6.00;99.90
38241;DHT22;24037;49.536;8.500;2022-11-20T16:43:13;6.00;99.90
38241;DHT22;24037;49.536;8.500;2022-11-20T16:45:41;6.10;99.90
38241;DHT22;24037;49.536;8.500;2022-11-20T16:48:12;6.20;99.90
38241;DHT22;24037;49.536;8.500;2022-11-20T16:50:53;6.20;99.90
38241;DHT22;24037;49.536;8.500;2022-11-20T16:53:20;6.30;99.90
38241;DHT22;24037;49.536;8.500;2022-11-20T16:55:47;6.40;99.90
38241;DHT22;24037;49.536;8.500;2022-11-20T16:58:14;6.40;99.90
38241;DHT22;24037;49.536;8.500;2022-11-20T17:00:41;6.50;99.90
38241;DHT22;24037;49.536;8.500;2022-11-20T17:03:07;6.50;99.90
38241;DHT22;24037;49.536;8.500;2022-11-20T17:05:34;6.50;99.90
38241;DHT22;24037;49.536;8.500;2022-11-20T17:08:00;6.50;99.90
38241;DHT22;24037;49.536;8.500;2022-11-20T17:10:27;6.60;99.90
38241;DHT22;24037;49.536;8.500;2022-11-20T17:12:53;6.60;99.90
38241;DHT22;24037;49.536;8.500;2022-11-20T17:15:19;6.60;99.90
38241;DHT22;24037;49.536;8.500;2022-11-20T17:17:45;6.50;99.90
38241;DHT22;24037;49.536;8.500;2022-11-20T17:20:11;6.50;99.90